sensor_id;sensor_type;location;lat;lon;timestamp;P1;durP1;ratioP1;P2;durP2;ratioP2
17852;SDS011;9052;53.494;14.376;2023-09-12T00:01:34;29.63;;;21.90;;
17852;SDS011;9052;53.494;14.376;2023-09-12T00:04:00;24.23;;;21.73;;
17852;SDS011;9052;53.494;14.376;2023-09-12T00:06:28;22.73;;;20.43;;
17852;SDS011;9052;53.494;14.376;2023-09-12T00:08:55;30.70;;;17.40;;
17852;SDS011;9052;53.494;14.376;2023-09-12T00:11:22;18.33;;;16.47;;
17852;SDS011;9052;53.494;14.376;2023-09-12T00:13:50;20.47;;;15.30;;
17852;SDS011;9052;53.494;14.376;2023-09-12T00:16:17;16.80;;;15.07;;
17852;SDS011;9052;53.494;14.376;2023-09-12T00:18:44;16.50;;;14.33;;
17852;SDS011;9052;53.494;14.376;2023-09-12T00:21:11;15.60;;;14.20;;
17852;SDS011;9052;53.494;14.376;2023-09-12T00:23:39;15.50;;;13.90;;
17852;SDS011;9052;53.494;14.376;2023-09-12T00:26:05;20.00;;;14.17;;
17852;SDS011;9052;53.494;14.376;2023-09-12T00:28:32;15.20;;;13.70;;
17852;SDS011;9052;53.494;14.376;2023-09-12T00:30:59;15.20;;;13.50;;
17852;SDS011;9052;53.494;14.376;2023-09-12T00:33:26;19.40;;;16.90;;
17852;SDS011;9052;53.494;14.376;2023-09-12T00:35:53;36.57;;;21.60;;
17852;SDS011;9052;53.494;14.376;2023-09-12T00:38:19;30.40;;;27.20;;
17852;SDS011;9052;53.494;14.376;2023-09-12T00:40:47;36.70;;;30.57;;
17852;SDS011;9052;53.494;14.376;2023-09-12T00:43:14;36.30;;;29.40;;
17852;SDS011;9052;53.494;14.376;2023-09-12T00:45:41;33.27;;;27.27;;
17852;SDS011;9052;53.494;14.376;2023-09-12T00:48:08;33.73;;;23.93;;
17852;SDS011;9052;53.494;14.376;2023-09-12T00:50:36;30.10;;;23.60;;
17852;SDS011;9052;53.494;14.376;2023-09-12T00:53:03;30.37;;;26.00;;
17852;SDS011;9052;53.494;14.376;2023-09-12T00:55:31;24.33;;;21.60;;
17852;SDS011;9052;53.494;14.376;2023-09-12T00:58:00;22.87;;;18.87;;
17852;SDS011;9052;53.494;14.376;2023-09-12T01:00:27;26.23;;;17.50;;
17852;SDS011;9052;53.494;14.376;2023-09-12T01:02:54;20.00;;;17.90;;
17852;SDS011;9052;53.494;14.376;2023-09-12T01:05:21;23.53;;;16.77;;
17852;SDS011;9052;53.494;14.376;2023-09-12T01:07:48;20.73;;;18.70;;
17852;SDS011;9052;53.494;14.376;2023-09-12T01:10:15;17.03;;;15.30;;
17852;SDS011;9052;53.494;14.376;2023-09-12T01:12:42;17.37;;;15.53;;
17852;SDS011;9052;53.494;14.376;2023-09-12T01:15:10;17.87;;;15.57;;
17852;SDS011;9052;53.494;14.376;2023-09-12T01:17:39;16.23;;;13.87;;
17852;SDS011;9052;53.494;14.376;2023-09-12T01:20:07;14.97;;;13.50;;
17852;SDS011;9052;53.494;14.376;2023-09-12T01:22:42;14.40;;;12.90;;
17852;SDS011;9052;53.494;14.376;2023-09-12T01:25:40;15.40;;;12.67;;
17852;SDS011;9052;53.494;14.376;2023-09-12T01:28:13;15.10;;;13.53;;
17852;SDS011;9052;53.494;14.376;2023-09-12T01:30:42;14.67;;;13.13;;
17852;SDS011;9052;53.494;14.376;2023-09-12T01:33:10;19.97;;;16.87;;
17852;SDS011;9052;53.494;14.376;2023-09-12T01:35:36;24.40;;;18.87;;
17852;SDS011;9052;53.494;14.376;2023-09-12T01:38:03;26.20;;;22.97;;
17852;SDS011;9052;53.494;14.376;2023-09-12T01:40:33;24.30;;;21.70;;
17852;SDS011;9052;53.494;14.376;2023-09-12T01:43:13;25.77;;;23.07;;
17852;SDS011;9052;53.494;14.376;2023-09-12T01:45:42;24.80;;;22.13;;
17852;SDS011;9052;53.494;14.376;2023-09-12T01:48:09;22.73;;;19.77;;
17852;SDS011;9052;53.494;14.376;2023-09-12T01:50:37;26.70;;;22.20;;
17852;SDS011;9052;53.494;14.376;2023-09-12T01:53:04;34.80;;;21.30;;
17852;SDS011;9052;53.494;14.376;2023-09-12T01:55:31;24.80;;;21.00;;
17852;SDS011;9052;53.494;14.376;2023-09-12T01:57:58;21.07;;;19.00;;
17852;SDS011;9052;53.494;14.376;2023-09-12T02:00:26;22.20;;;19.50;;
17852;SDS011;9052;53.494;14.376;2023-09-12T02:02:53;21.43;;;18.93;;
17852;SDS011;9052;53.494;14.376;2023-09-12T02:05:20;19.47;;;17.57;;
17852;SDS011;9052;53.494;14.376;2023-09-12T02:07:47;19.47;;;17.47;;
17852;SDS011;9052;53.494;14.376;2023-09-12T02:10:15;18.80;;;15.83;;
17852;SDS011;9052;53.494;14.376;2023-09-12T02:12:41;17.30;;;14.63;;
17852;SDS011;9052;53.494;14.376;2023-09-12T02:15:08;15.10;;;13.70;;
17852;SDS011;9052;53.494;14.376;2023-09-12T02:17:38;16.77;;;15.07;;
17852;SDS011;9052;53.494;14.376;2023-09-12T02:20:06;19.57;;;14.60;;
17852;SDS011;9052;53.494;14.376;2023-09-12T02:22:33;16.93;;;14.30;;
17852;SDS011;9052;53.494;14.376;2023-09-12T02:25:00;21.30;;;13.83;;
17852;SDS011;9052;53.494;14.376;2023-09-12T02:27:28;22.37;;;14.10;;
17852;SDS011;9052;53.494;14.376;2023-09-12T02:29:54;12.73;;;11.43;;
17852;SDS011;9052;53.494;14.376;2023-09-12T02:32:21;14.30;;;12.20;;
17852;SDS011;9052;53.494;14.376;2023-09-12T02:34:49;13.83;;;12.37;;
17852;SDS011;9052;53.494;14.376;2023-09-12T02:37:18;16.53;;;12.30;;
17852;SDS011;9052;53.494;14.376;2023-09-12T02:39:44;16.10;;;13.97;;
17852;SDS011;9052;53.494;14.376;2023-09-12T02:42:11;19.97;;;17.87;;
17852;SDS011;9052;53.494;14.376;2023-09-12T02:44:38;23.00;;;20.57;;
17852;SDS011;9052;53.494;14.376;2023-09-12T02:47:05;25.23;;;22.30;;
17852;SDS011;9052;53.494;14.376;2023-09-12T02:49:32;23.83;;;21.30;;
17852;SDS011;9052;53.494;14.376;2023-09-12T02:52:00;25.47;;;21.00;;
17852;SDS011;9052;53.494;14.376;2023-09-12T02:54:27;22.40;;;20.00;;
17852;SDS011;9052;53.494;14.376;2023-09-12T02:56:53;26.73;;;23.33;;
17852;SDS011;9052;53.494;14.376;2023-09-12T02:59:20;25.73;;;21.37;;
17852;SDS011;9052;53.494;14.376;2023-09-12T03:01:47;27.77;;;23.90;;
17852;SDS011;9052;53.494;14.376;2023-09-12T03:04:13;27.00;;;24.20;;
17852;SDS011;9052;53.494;14.376;2023-09-12T03:06:40;33.60;;;27.10;;
17852;SDS011;9052;53.494;14.376;2023-09-12T03:09:08;33.00;;;27.33;;
17852;SDS011;9052;53.494;14.376;2023-09-12T03:11:36;42.13;;;28.27;;
17852;SDS011;9052;53.494;14.376;2023-09-12T03:14:03;35.50;;;27.17;;
17852;SDS011;9052;53.494;14.376;2023-09-12T03:16:29;35.87;;;30.90;;
17852;SDS011;9052;53.494;14.376;2023-09-12T03:18:56;35.77;;;28.97;;
17852;SDS011;9052;53.494;14.376;2023-09-12T03:21:23;34.23;;;29.60;;
17852;SDS011;9052;53.494;14.376;2023-09-12T03:23:49;36.33;;;29.63;;
17852;SDS011;9052;53.494;14.376;2023-09-12T03:26:17;37.33;;;27.70;;
17852;SDS011;9052;53.494;14.376;2023-09-12T03:28:44;33.20;;;29.67;;
17852;SDS011;9052;53.494;14.376;2023-09-12T03:31:11;33.00;;;29.17;;
17852;SDS011;9052;53.494;14.376;2023-09-12T03:33:39;41.90;;;31.43;;
17852;SDS011;9052;53.494;14.376;2023-09-12T03:36:06;35.50;;;28.67;;
17852;SDS011;9052;53.494;14.376;2023-09-12T03:38:33;41.23;;;29.87;;
17852;SDS011;9052;53.494;14.376;2023-09-12T03:41:00;36.23;;;27.73;;
17852;SDS011;9052;53.494;14.376;2023-09-12T03:43:28;37.13;;;27.70;;
17852;SDS011;9052;53.494;14.376;2023-09-12T03:45:56;34.70;;;29.83;;
17852;SDS011;9052;53.494;14.376;2023-09-12T03:48:22;35.20;;;29.67;;
17852;SDS011;9052;53.494;14.376;2023-09-12T03:50:49;35.07;;;27.60;;
17852;SDS011;9052;53.494;14.376;2023-09-12T03:53:16;32.50;;;24.63;;
17852;SDS011;9052;53.494;14.376;2023-09-12T03:55:43;34.10;;;26.80;;
17852;SDS011;9052;53.494;14.376;2023-09-12T03:58:10;28.93;;;25.90;;
17852;SDS011;9052;53.494;14.376;2023-09-12T04:00:38;31.30;;;26.27;;
17852;SDS011;9052;53.494;14.376;2023-09-12T04:03:04;29.50;;;24.67;;
17852;SDS011;9052;53.494;14.376;2023-09-12T04:05:31;30.93;;;24.43;;
17852;SDS011;9052;53.494;14.376;2023-09-12T04:07:58;25.30;;;22.70;;
17852;SDS011;9052;53.494;14.376;2023-09-12T04:10:25;23.17;;;20.67;;
17852;SDS011;9052;53.494;14.376;2023-09-12T04:12:52;27.50;;;20.00;;
17852;SDS011;9052;53.494;14.376;2023-09-12T04:15:18;23.20;;;20.50;;
17852;SDS011;9052;53.494;14.376;2023-09-12T04:17:46;25.67;;;20.37;;
17852;SDS011;9052;53.494;14.376;2023-09-12T04:20:13;27.07;;;22.70;;
17852;SDS011;9052;53.494;14.376;2023-09-12T04:22:41;30.10;;;22.80;;
17852;SDS011;9052;53.494;14.376;2023-09-12T04:25:08;31.20;;;19.97;;
17852;SDS011;9052;53.494;14.376;2023-09-12T04:27:34;25.63;;;22.90;;
17852;SDS011;9052;53.494;14.376;2023-09-12T04:30:01;29.43;;;19.90;;
17852;SDS011;9052;53.494;14.376;2023-09-12T04:32:29;24.37;;;18.90;;
17852;SDS011;9052;53.494;14.376;2023-09-12T04:34:57;24.70;;;19.43;;
17852;SDS011;9052;53.494;14.376;2023-09-12T04:37:23;29.77;;;22.67;;
17852;SDS011;9052;53.494;14.376;2023-09-12T04:39:50;24.67;;;22.07;;
17852;SDS011;9052;53.494;14.376;2023-09-12T04:42:17;22.97;;;20.10;;
17852;SDS011;9052;53.494;14.376;2023-09-12T04:44:44;30.40;;;22.70;;
17852;SDS011;9052;53.494;14.376;2023-09-12T04:47:11;30.33;;;22.57;;
17852;SDS011;9052;53.494;14.376;2023-09-12T04:49:38;22.53;;;19.60;;
17852;SDS011;9052;53.494;14.376;2023-09-12T04:52:06;27.17;;;21.83;;
17852;SDS011;9052;53.494;14.376;2023-09-12T04:54:33;28.73;;;24.00;;
17852;SDS011;9052;53.494;14.376;2023-09-12T04:57:00;35.57;;;26.47;;
17852;SDS011;9052;53.494;14.376;2023-09-12T04:59:26;41.53;;;28.63;;
17852;SDS011;9052;53.494;14.376;2023-09-12T05:01:53;33.77;;;27.87;;
17852;SDS011;9052;53.494;14.376;2023-09-12T05:04:20;42.90;;;26.47;;
17852;SDS011;9052;53.494;14.376;2023-09-12T05:06:47;25.30;;;22.60;;
17852;SDS011;9052;53.494;14.376;2023-09-12T05:09:15;25.80;;;23.13;;
17852;SDS011;9052;53.494;14.376;2023-09-12T05:11:42;37.33;;;23.07;;
17852;SDS011;9052;53.494;14.376;2023-09-12T05:14:09;34.97;;;19.70;;
17852;SDS011;9052;53.494;14.376;2023-09-12T05:16:36;41.30;;;20.30;;
17852;SDS011;9052;53.494;14.376;2023-09-12T05:19:03;23.63;;;21.03;;
17852;SDS011;9052;53.494;14.376;2023-09-12T05:21:31;28.97;;;21.00;;
17852;SDS011;9052;53.494;14.376;2023-09-12T05:23:57;26.47;;;20.77;;
17852;SDS011;9052;53.494;14.376;2023-09-12T05:26:26;30.67;;;19.27;;
17852;SDS011;9052;53.494;14.376;2023-09-12T05:28:52;26.87;;;18.23;;
17852;SDS011;9052;53.494;14.376;2023-09-12T05:31:19;21.77;;;15.97;;
17852;SDS011;9052;53.494;14.376;2023-09-12T05:33:46;45.43;;;16.50;;
17852;SDS011;9052;53.494;14.376;2023-09-12T05:36:14;28.30;;;16.17;;
17852;SDS011;9052;53.494;14.376;2023-09-12T05:38:40;25.23;;;15.17;;
17852;SDS011;9052;53.494;14.376;2023-09-12T05:41:07;24.47;;;15.97;;
17852;SDS011;9052;53.494;14.376;2023-09-12T05:43:38;20.80;;;14.43;;
17852;SDS011;9052;53.494;14.376;2023-09-12T05:46:05;36.47;;;14.80;;
17852;SDS011;9052;53.494;14.376;2023-09-12T05:48:32;20.13;;;14.53;;
17852;SDS011;9052;53.494;14.376;2023-09-12T05:50:58;33.00;;;16.10;;
17852;SDS011;9052;53.494;14.376;2023-09-12T05:53:25;41.47;;;15.97;;
17852;SDS011;9052;53.494;14.376;2023-09-12T05:55:52;29.27;;;14.03;;
17852;SDS011;9052;53.494;14.376;2023-09-12T05:58:18;28.37;;;13.93;;
17852;SDS011;9052;53.494;14.376;2023-09-12T06:00:47;28.63;;;14.60;;
17852;SDS011;9052;53.494;14.376;2023-09-12T06:03:14;17.80;;;14.80;;
17852;SDS011;9052;53.494;14.376;2023-09-12T06:05:41;28.97;;;16.03;;
17852;SDS011;9052;53.494;14.376;2023-09-12T06:08:08;37.50;;;15.97;;
17852;SDS011;9052;53.494;14.376;2023-09-12T06:10:34;28.57;;;15.37;;
17852;SDS011;9052;53.494;14.376;2023-09-12T06:13:01;22.70;;;15.03;;
17852;SDS011;9052;53.494;14.376;2023-09-12T06:15:28;23.47;;;16.33;;
17852;SDS011;9052;53.494;14.376;2023-09-12T06:17:56;20.30;;;15.03;;
17852;SDS011;9052;53.494;14.376;2023-09-12T06:20:23;27.87;;;15.70;;
17852;SDS011;9052;53.494;14.376;2023-09-12T06:22:49;24.30;;;14.53;;
17852;SDS011;9052;53.494;14.376;2023-09-12T06:25:16;26.43;;;15.03;;
17852;SDS011;9052;53.494;14.376;2023-09-12T06:27:43;24.13;;;15.00;;
17852;SDS011;9052;53.494;14.376;2023-09-12T06:30:10;17.50;;;14.77;;
17852;SDS011;9052;53.494;14.376;2023-09-12T06:32:38;22.07;;;13.90;;
17852;SDS011;9052;53.494;14.376;2023-09-12T06:35:07;24.17;;;14.83;;
17852;SDS011;9052;53.494;14.376;2023-09-12T06:37:37;24.30;;;14.27;;
17852;SDS011;9052;53.494;14.376;2023-09-12T06:40:06;50.57;;;14.60;;
17852;SDS011;9052;53.494;14.376;2023-09-12T06:42:33;30.23;;;14.43;;
17852;SDS011;9052;53.494;14.376;2023-09-12T06:45:00;25.07;;;13.50;;
17852;SDS011;9052;53.494;14.376;2023-09-12T06:47:27;13.77;;;12.23;;
17852;SDS011;9052;53.494;14.376;2023-09-12T06:49:54;18.53;;;12.00;;
17852;SDS011;9052;53.494;14.376;2023-09-12T06:52:22;36.60;;;14.57;;
17852;SDS011;9052;53.494;14.376;2023-09-12T06:54:48;22.80;;;13.70;;
17852;SDS011;9052;53.494;14.376;2023-09-12T06:57:15;19.93;;;12.17;;
17852;SDS011;9052;53.494;14.376;2023-09-12T06:59:43;26.30;;;14.13;;
17852;SDS011;9052;53.494;14.376;2023-09-12T07:02:09;15.97;;;12.83;;
17852;SDS011;9052;53.494;14.376;2023-09-12T07:04:38;16.83;;;12.63;;
17852;SDS011;9052;53.494;14.376;2023-09-12T07:07:04;27.10;;;14.57;;
17852;SDS011;9052;53.494;14.376;2023-09-12T07:09:32;14.87;;;11.93;;
17852;SDS011;9052;53.494;14.376;2023-09-12T07:11:59;16.53;;;12.50;;
17852;SDS011;9052;53.494;14.376;2023-09-12T07:14:26;18.20;;;13.37;;
17852;SDS011;9052;53.494;14.376;2023-09-12T07:16:52;31.83;;;14.90;;
17852;SDS011;9052;53.494;14.376;2023-09-12T07:19:19;22.20;;;14.70;;
17852;SDS011;9052;53.494;14.376;2023-09-12T07:21:46;17.80;;;12.50;;
17852;SDS011;9052;53.494;14.376;2023-09-12T07:24:13;18.23;;;13.30;;
17852;SDS011;9052;53.494;14.376;2023-09-12T07:26:41;15.40;;;11.97;;
17852;SDS011;9052;53.494;14.376;2023-09-12T07:29:08;18.63;;;13.27;;
17852;SDS011;9052;53.494;14.376;2023-09-12T07:31:35;18.23;;;11.83;;
17852;SDS011;9052;53.494;14.376;2023-09-12T07:34:02;16.20;;;10.70;;
17852;SDS011;9052;53.494;14.376;2023-09-12T07:36:29;15.43;;;10.90;;
17852;SDS011;9052;53.494;14.376;2023-09-12T07:38:57;45.53;;;12.67;;
17852;SDS011;9052;53.494;14.376;2023-09-12T07:41:24;16.40;;;10.70;;
17852;SDS011;9052;53.494;14.376;2023-09-12T07:43:52;29.93;;;11.63;;
17852;SDS011;9052;53.494;14.376;2023-09-12T07:46:19;19.27;;;10.70;;
17852;SDS011;9052;53.494;14.376;2023-09-12T07:48:46;20.33;;;11.00;;
17852;SDS011;9052;53.494;14.376;2023-09-12T07:51:13;15.07;;;10.13;;
17852;SDS011;9052;53.494;14.376;2023-09-12T07:53:42;20.90;;;10.60;;
17852;SDS011;9052;53.494;14.376;2023-09-12T07:56:09;17.40;;;11.83;;
17852;SDS011;9052;53.494;14.376;2023-09-12T07:58:36;14.40;;;9.97;;
17852;SDS011;9052;53.494;14.376;2023-09-12T08:01:08;13.60;;;10.63;;
17852;SDS011;9052;53.494;14.376;2023-09-12T08:03:35;11.70;;;8.60;;
17852;SDS011;9052;53.494;14.376;2023-09-12T08:06:03;14.17;;;9.17;;
17852;SDS011;9052;53.494;14.376;2023-09-12T08:08:32;9.37;;;8.20;;
17852;SDS011;9052;53.494;14.376;2023-09-12T08:10:59;14.03;;;8.17;;
17852;SDS011;9052;53.494;14.376;2023-09-12T08:13:26;13.90;;;8.87;;
17852;SDS011;9052;53.494;14.376;2023-09-12T08:15:54;11.03;;;7.33;;
17852;SDS011;9052;53.494;14.376;2023-09-12T08:18:26;9.97;;;8.23;;
17852;SDS011;9052;53.494;14.376;2023-09-12T08:20:55;15.60;;;8.27;;
17852;SDS011;9052;53.494;14.376;2023-09-12T08:23:22;12.00;;;6.90;;
17852;SDS011;9052;53.494;14.376;2023-09-12T08:25:48;13.40;;;7.63;;
17852;SDS011;9052;53.494;14.376;2023-09-12T08:28:15;7.93;;;6.60;;
17852;SDS011;9052;53.494;14.376;2023-09-12T08:30:43;11.27;;;7.63;;
17852;SDS011;9052;53.494;14.376;2023-09-12T08:33:11;20.77;;;7.70;;
17852;SDS011;9052;53.494;14.376;2023-09-12T08:35:39;12.80;;;7.87;;
17852;SDS011;9052;53.494;14.376;2023-09-12T08:38:06;16.57;;;7.60;;
17852;SDS011;9052;53.494;14.376;2023-09-12T08:40:33;83.77;;;12.17;;
17852;SDS011;9052;53.494;14.376;2023-09-12T08:43:00;9.23;;;8.27;;
17852;SDS011;9052;53.494;14.376;2023-09-12T08:45:28;13.77;;;8.20;;
17852;SDS011;9052;53.494;14.376;2023-09-12T08:47:56;14.63;;;7.30;;
17852;SDS011;9052;53.494;14.376;2023-09-12T08:50:25;19.73;;;7.63;;
17852;SDS011;9052;53.494;14.376;2023-09-12T08:52:57;12.10;;;7.30;;
17852;SDS011;9052;53.494;14.376;2023-09-12T08:55:24;16.00;;;8.57;;
17852;SDS011;9052;53.494;14.376;2023-09-12T08:57:50;16.10;;;7.90;;
17852;SDS011;9052;53.494;14.376;2023-09-12T09:00:19;18.17;;;7.80;;
17852;SDS011;9052;53.494;14.376;2023-09-12T09:02:46;10.00;;;7.73;;
17852;SDS011;9052;53.494;14.376;2023-09-12T09:05:13;10.20;;;8.13;;
17852;SDS011;9052;53.494;14.376;2023-09-12T09:07:40;8.23;;;7.07;;
17852;SDS011;9052;53.494;14.376;2023-09-12T09:10:14;9.60;;;7.93;;
17852;SDS011;9052;53.494;14.376;2023-09-12T09:12:42;18.97;;;7.53;;
17852;SDS011;9052;53.494;14.376;2023-09-12T09:15:23;14.30;;;7.33;;
17852;SDS011;9052;53.494;14.376;2023-09-12T09:17:51;9.67;;;7.87;;
17852;SDS011;9052;53.494;14.376;2023-09-12T09:20:21;39.40;;;8.40;;
17852;SDS011;9052;53.494;14.376;2023-09-12T09:22:56;11.83;;;6.40;;
17852;SDS011;9052;53.494;14.376;2023-09-12T09:25:25;13.90;;;7.30;;
17852;SDS011;9052;53.494;14.376;2023-09-12T09:27:52;8.37;;;5.80;;
17852;SDS011;9052;53.494;14.376;2023-09-12T09:30:20;12.93;;;6.97;;
17852;SDS011;9052;53.494;14.376;2023-09-12T09:33:05;12.60;;;7.00;;
17852;SDS011;9052;53.494;14.376;2023-09-12T09:35:32;26.37;;;7.10;;
17852;SDS011;9052;53.494;14.376;2023-09-12T09:37:59;16.83;;;6.65;;
17852;SDS011;9052;53.494;14.376;2023-09-12T09:40:27;10.48;;;6.70;;
17852;SDS011;9052;53.494;14.376;2023-09-12T09:42:54;11.30;;;6.15;;
17852;SDS011;9052;53.494;14.376;2023-09-12T09:45:22;12.07;;;6.65;;
17852;SDS011;9052;53.494;14.376;2023-09-12T09:47:49;11.48;;;6.18;;
17852;SDS011;9052;53.494;14.376;2023-09-12T09:50:16;17.45;;;6.53;;
17852;SDS011;9052;53.494;14.376;2023-09-12T09:52:43;20.38;;;7.50;;
17852;SDS011;9052;53.494;14.376;2023-09-12T09:55:12;13.48;;;7.00;;
17852;SDS011;9052;53.494;14.376;2023-09-12T09:57:41;8.98;;;5.93;;
17852;SDS011;9052;53.494;14.376;2023-09-12T10:00:08;9.00;;;5.47;;
17852;SDS011;9052;53.494;14.376;2023-09-12T10:02:40;11.30;;;6.80;;
17852;SDS011;9052;53.494;14.376;2023-09-12T10:05:08;13.98;;;7.07;;
17852;SDS011;9052;53.494;14.376;2023-09-12T10:07:37;7.38;;;5.18;;
17852;SDS011;9052;53.494;14.376;2023-09-12T10:10:05;13.57;;;5.78;;
17852;SDS011;9052;53.494;14.376;2023-09-12T10:12:33;14.05;;;5.93;;
17852;SDS011;9052;53.494;14.376;2023-09-12T10:15:02;17.38;;;7.18;;
17852;SDS011;9052;53.494;14.376;2023-09-12T10:17:31;20.50;;;6.20;;
17852;SDS011;9052;53.494;14.376;2023-09-12T10:20:02;11.77;;;5.68;;
17852;SDS011;9052;53.494;14.376;2023-09-12T10:22:32;11.07;;;5.30;;
17852;SDS011;9052;53.494;14.376;2023-09-12T10:25:02;20.00;;;6.00;;
17852;SDS011;9052;53.494;14.376;2023-09-12T10:27:29;15.90;;;6.10;;
17852;SDS011;9052;53.494;14.376;2023-09-12T10:29:56;14.63;;;5.70;;
17852;SDS011;9052;53.494;14.376;2023-09-12T10:32:26;16.20;;;5.13;;
17852;SDS011;9052;53.494;14.376;2023-09-12T10:34:55;6.97;;;4.83;;
17852;SDS011;9052;53.494;14.376;2023-09-12T10:37:23;12.93;;;5.20;;
17852;SDS011;9052;53.494;14.376;2023-09-12T10:39:52;15.07;;;5.50;;
17852;SDS011;9052;53.494;14.376;2023-09-12T10:42:19;15.77;;;6.40;;
17852;SDS011;9052;53.494;14.376;2023-09-12T10:44:46;28.33;;;6.47;;
17852;SDS011;9052;53.494;14.376;2023-09-12T10:47:13;14.60;;;6.03;;
17852;SDS011;9052;53.494;14.376;2023-09-12T10:49:41;20.27;;;7.13;;
17852;SDS011;9052;53.494;14.376;2023-09-12T10:52:09;24.10;;;6.13;;
17852;SDS011;9052;53.494;14.376;2023-09-12T10:54:36;28.37;;;7.20;;
17852;SDS011;9052;53.494;14.376;2023-09-12T10:57:04;15.73;;;6.57;;
17852;SDS011;9052;53.494;14.376;2023-09-12T10:59:32;25.93;;;7.33;;
17852;SDS011;9052;53.494;14.376;2023-09-12T11:04:57;25.33;;;6.93;;
17852;SDS011;9052;53.494;14.376;2023-09-12T11:07:31;13.67;;;8.60;;
17852;SDS011;9052;53.494;14.376;2023-09-12T11:10:17;23.53;;;7.50;;
17852;SDS011;9052;53.494;14.376;2023-09-12T11:12:45;20.30;;;8.70;;
17852;SDS011;9052;53.494;14.376;2023-09-12T11:15:12;26.53;;;7.70;;
17852;SDS011;9052;53.494;14.376;2023-09-12T11:17:40;27.03;;;8.20;;
17852;SDS011;9052;53.494;14.376;2023-09-12T11:20:09;14.00;;;6.90;;
17852;SDS011;9052;53.494;14.376;2023-09-12T11:22:37;13.67;;;7.33;;
17852;SDS011;9052;53.494;14.376;2023-09-12T11:25:08;13.90;;;6.30;;
17852;SDS011;9052;53.494;14.376;2023-09-12T11:27:43;36.90;;;7.13;;
17852;SDS011;9052;53.494;14.376;2023-09-12T11:30:11;28.80;;;8.40;;
17852;SDS011;9052;53.494;14.376;2023-09-12T11:32:39;25.50;;;7.03;;
17852;SDS011;9052;53.494;14.376;2023-09-12T11:35:06;18.33;;;8.13;;
17852;SDS011;9052;53.494;14.376;2023-09-12T11:37:35;16.53;;;7.77;;
17852;SDS011;9052;53.494;14.376;2023-09-12T11:40:02;23.87;;;7.27;;
17852;SDS011;9052;53.494;14.376;2023-09-12T11:42:39;33.00;;;7.97;;
17852;SDS011;9052;53.494;14.376;2023-09-12T11:45:07;18.23;;;7.67;;
17852;SDS011;9052;53.494;14.376;2023-09-12T11:47:37;20.13;;;7.93;;
17852;SDS011;9052;53.494;14.376;2023-09-12T11:50:06;29.93;;;8.27;;
17852;SDS011;9052;53.494;14.376;2023-09-12T11:52:37;13.70;;;7.83;;
17852;SDS011;9052;53.494;14.376;2023-09-12T11:55:04;24.90;;;8.53;;
17852;SDS011;9052;53.494;14.376;2023-09-12T11:57:31;27.37;;;8.07;;
17852;SDS011;9052;53.494;14.376;2023-09-12T11:59:59;24.17;;;9.10;;
17852;SDS011;9052;53.494;14.376;2023-09-12T12:02:33;23.27;;;7.97;;
17852;SDS011;9052;53.494;14.376;2023-09-12T12:05:00;36.13;;;7.20;;
17852;SDS011;9052;53.494;14.376;2023-09-12T12:07:29;25.93;;;7.00;;
17852;SDS011;9052;53.494;14.376;2023-09-12T12:09:57;31.10;;;7.07;;
17852;SDS011;9052;53.494;14.376;2023-09-12T12:12:24;27.53;;;7.63;;
17852;SDS011;9052;53.494;14.376;2023-09-12T12:14:51;22.03;;;7.43;;
17852;SDS011;9052;53.494;14.376;2023-09-12T12:17:18;14.83;;;6.30;;
17852;SDS011;9052;53.494;14.376;2023-09-12T12:19:45;18.73;;;7.57;;
17852;SDS011;9052;53.494;14.376;2023-09-12T12:22:12;17.93;;;6.83;;
17852;SDS011;9052;53.494;14.376;2023-09-12T12:24:39;17.43;;;6.70;;
17852;SDS011;9052;53.494;14.376;2023-09-12T12:27:09;15.80;;;6.73;;
17852;SDS011;9052;53.494;14.376;2023-09-12T12:29:36;16.20;;;6.87;;
17852;SDS011;9052;53.494;14.376;2023-09-12T12:32:04;17.13;;;6.20;;
17852;SDS011;9052;53.494;14.376;2023-09-12T12:34:34;8.73;;;6.40;;
17852;SDS011;9052;53.494;14.376;2023-09-12T12:37:00;14.13;;;6.70;;
17852;SDS011;9052;53.494;14.376;2023-09-12T12:39:27;14.37;;;6.50;;
17852;SDS011;9052;53.494;14.376;2023-09-12T12:41:54;10.20;;;6.40;;
17852;SDS011;9052;53.494;14.376;2023-09-12T12:44:22;10.73;;;5.77;;
17852;SDS011;9052;53.494;14.376;2023-09-12T12:47:03;17.67;;;5.83;;
17852;SDS011;9052;53.494;14.376;2023-09-12T12:49:30;13.90;;;6.37;;
17852;SDS011;9052;53.494;14.376;2023-09-12T12:52:02;17.80;;;5.57;;
17852;SDS011;9052;53.494;14.376;2023-09-12T12:54:31;16.80;;;6.00;;
17852;SDS011;9052;53.494;14.376;2023-09-12T12:56:58;15.87;;;6.23;;
17852;SDS011;9052;53.494;14.376;2023-09-12T12:59:26;10.40;;;6.33;;
17852;SDS011;9052;53.494;14.376;2023-09-12T13:01:54;13.23;;;5.37;;
17852;SDS011;9052;53.494;14.376;2023-09-12T13:04:21;9.80;;;5.97;;
17852;SDS011;9052;53.494;14.376;2023-09-12T13:06:50;21.53;;;5.67;;
17852;SDS011;9052;53.494;14.376;2023-09-12T13:09:16;10.40;;;5.70;;
17852;SDS011;9052;53.494;14.376;2023-09-12T13:11:43;11.60;;;5.30;;
17852;SDS011;9052;53.494;14.376;2023-09-12T13:14:11;15.60;;;5.77;;
17852;SDS011;9052;53.494;14.376;2023-09-12T13:16:39;19.13;;;5.67;;
17852;SDS011;9052;53.494;14.376;2023-09-12T13:19:06;17.00;;;6.30;;
17852;SDS011;9052;53.494;14.376;2023-09-12T13:21:32;15.93;;;6.60;;
17852;SDS011;9052;53.494;14.376;2023-09-12T13:24:00;11.93;;;6.33;;
17852;SDS011;9052;53.494;14.376;2023-09-12T13:26:27;17.67;;;7.10;;
17852;SDS011;9052;53.494;14.376;2023-09-12T13:28:53;30.70;;;5.67;;
17852;SDS011;9052;53.494;14.376;2023-09-12T13:31:20;11.40;;;5.57;;
17852;SDS011;9052;53.494;14.376;2023-09-12T13:33:48;17.00;;;6.10;;
17852;SDS011;9052;53.494;14.376;2023-09-12T13:36:15;10.33;;;5.47;;
17852;SDS011;9052;53.494;14.376;2023-09-12T13:38:42;18.07;;;6.00;;
17852;SDS011;9052;53.494;14.376;2023-09-12T13:41:09;18.50;;;6.30;;
17852;SDS011;9052;53.494;14.376;2023-09-12T13:43:36;12.37;;;5.83;;
17852;SDS011;9052;53.494;14.376;2023-09-12T13:46:03;19.37;;;6.20;;
17852;SDS011;9052;53.494;14.376;2023-09-12T13:48:29;23.23;;;6.10;;
17852;SDS011;9052;53.494;14.376;2023-09-12T13:50:57;10.00;;;5.97;;
17852;SDS011;9052;53.494;14.376;2023-09-12T13:53:24;12.67;;;6.07;;
17852;SDS011;9052;53.494;14.376;2023-09-12T13:55:51;15.73;;;7.23;;
17852;SDS011;9052;53.494;14.376;2023-09-12T13:58:17;8.93;;;6.43;;
17852;SDS011;9052;53.494;14.376;2023-09-12T14:00:44;16.40;;;5.97;;
17852;SDS011;9052;53.494;14.376;2023-09-12T14:03:11;13.47;;;5.80;;
17852;SDS011;9052;53.494;14.376;2023-09-12T14:05:38;7.73;;;5.73;;
17852;SDS011;9052;53.494;14.376;2023-09-12T14:08:06;8.43;;;6.63;;
17852;SDS011;9052;53.494;14.376;2023-09-12T14:10:33;9.07;;;6.67;;
17852;SDS011;9052;53.494;14.376;2023-09-12T14:12:59;14.23;;;6.30;;
17852;SDS011;9052;53.494;14.376;2023-09-12T14:15:26;12.43;;;5.97;;
17852;SDS011;9052;53.494;14.376;2023-09-12T14:17:53;9.33;;;5.90;;
17852;SDS011;9052;53.494;14.376;2023-09-12T14:20:19;13.03;;;6.50;;
17852;SDS011;9052;53.494;14.376;2023-09-12T14:22:46;13.30;;;6.33;;
17852;SDS011;9052;53.494;14.376;2023-09-12T14:25:14;18.73;;;6.63;;
17852;SDS011;9052;53.494;14.376;2023-09-12T14:27:41;17.10;;;6.67;;
17852;SDS011;9052;53.494;14.376;2023-09-12T14:30:10;16.00;;;6.90;;
17852;SDS011;9052;53.494;14.376;2023-09-12T14:32:38;16.03;;;6.50;;
17852;SDS011;9052;53.494;14.376;2023-09-12T14:35:05;8.60;;;6.23;;